Time;durP1;ratioP1;P1;durP2;ratioP2;P2;SDS_P1;SDS_P2;PMS_P1;PMS_P2;Temp;Humidity;BMP_temperature;BMP_pressure;BME280_temperature;BME280_humidity;BME280_pressure;Samples;Min_cycle;Max_cycle;Signal;HPM_P1;HPM_P2
2022/05/20 00:01:10;;;;;;;;;13.50;7.00;;;;;9.82;74.04;100413.84;6311510;20;2749309;-46
2022/05/20 00:03:41;;;;;;;;;8.60;6.00;;;;;9.79;74.20;100416.66;6305247;20;2745088;-44
2022/05/20 00:06:09;;;;;;;;;6.00;6.00;;;;;9.61;74.66;100413.03;6316693;20;2733581;-45
2022/05/20 00:08:39;;;;;;;;;9.80;9.20;;;;;9.28;76.64;100415.44;6340031;20;2735692;-46
2022/05/20 00:11:10;;;;;;;;;11.00;8.00;;;;;9.39;77.20;100416.69;6311640;20;2765877;-45
2022/05/20 00:13:38;;;;;;;;;8.00;8.00;;;;;9.37;76.23;100407.88;6283102;20;2737803;-47
2022/05/20 00:16:06;;;;;;;;;11.50;9.00;;;;;9.32;76.72;100404.53;6313707;20;2755498;-50
2022/05/20 00:18:34;;;;;;;;;8.00;8.00;;;;;9.32;76.77;100400.94;6284862;20;2746159;-52
2022/05/20 00:21:01;;;;;;;;;11.00;10.00;;;;;9.28;75.97;100410.94;6277988;20;2788816;-50
2022/05/20 00:23:31;;;;;;;;;5.75;5.75;;;;;9.23;76.05;100397.75;6303648;20;1805520;-44
2022/05/20 00:25:59;;;;;;;;;11.50;8.00;;;;;9.31;76.10;100413.47;6315592;20;2750321;-49
2022/05/20 00:28:29;;;;;;;;;8.00;8.00;;;;;9.45;75.55;100411.06;6283412;20;2748191;-51
2022/05/20 00:31:08;;;;;;;;;6.00;6.00;;;;;9.12;78.26;100402.72;6281483;20;2748210;-52
2022/05/20 00:33:39;;;;;;;;;7.83;6.67;;;;;8.77;79.39;100401.56;6324431;20;1808671;-52
2022/05/20 00:36:07;;;;;;;;;10.00;8.00;;;;;8.86;79.19;100406.53;6284020;20;2748225;-52
2022/05/20 00:38:36;;;;;;;;;14.00;10.00;;;;;8.67;79.29;100409.13;6278171;20;2798208;-54
2022/05/20 00:41:07;;;;;;;;;10.00;8.00;;;;;8.64;78.13;100397.69;6299769;20;1808510;-50
2022/05/20 00:43:47;;;;;;;;;8.00;8.00;;;;;8.49;79.52;100397.38;6330986;20;1807760;-51
2022/05/20 00:46:26;;;;;;;;;9.50;8.00;;;;;8.24;80.29;100397.50;6315390;20;2750322;-51
2022/05/20 00:49:07;;;;;;;;;10.33;8.83;;;;;8.28;80.61;100395.53;6355871;20;1804605;-50
2022/05/20 00:51:45;;;;;;;;;9.83;8.33;;;;;8.60;79.27;100402.28;6322766;20;1808373;-51
2022/05/20 00:54:33;;;;;;;;;11.00;10.00;;;;;8.65;79.62;100399.41;6279850;20;2784630;-45
2022/05/20 00:57:17;;;;;;;;;8.00;8.00;;;;;8.98;78.07;100397.97;6299704;20;1812772;-48
2022/05/20 01:00:00;;;;;;;;;8.20;8.20;;;;;8.67;79.08;100393.06;6334091;20;2737779;-48
2022/05/20 01:02:32;;;;;;;;;8.50;8.50;;;;;8.71;79.74;100393.78;6328625;20;1810456;-47
2022/05/20 01:05:20;;;;;;;;;8.33;8.33;;;;;8.69;79.61;100390.28;6356171;20;1808686;-46
2022/05/20 01:07:48;;;;;;;;;13.00;7.50;;;;;8.53;80.38;100390.97;6279794;20;2752468;-44
2022/05/20 01:10:16;;;;;;;;;12.00;10.50;;;;;8.34;81.02;100390.78;6275777;20;2791958;-45
2022/05/20 01:12:45;;;;;;;;;8.75;8.75;;;;;8.61;79.20;100390.66;6300127;20;1817066;-44
2022/05/20 01:15:13;;;;;;;;;8.00;8.00;;;;;8.50;79.99;100393.75;6311819;20;2739931;-48
2022/05/20 01:17:42;;;;;;;;;10.00;9.00;;;;;8.66;80.68;100399.34;6276958;20;2759649;-44
2022/05/20 01:20:28;;;;;;;;;9.00;8.00;;;;;8.67;78.73;100387.69;6277970;20;2737750;-52
2022/05/20 01:23:00;;;;;;;;;8.00;8.00;;;;;7.95;81.66;100385.25;6278091;20;2741954;-50
2022/05/20 01:25:31;;;;;;;;;11.00;9.20;;;;;8.06;81.45;100383.03;6304007;20;2778463;-47
2022/05/20 01:27:59;;;;;;;;;12.00;10.00;;;;;8.03;82.09;100384.94;6279933;20;2779409;-54
2022/05/20 01:30:31;;;;;;;;;12.00;8.25;;;;;7.86;81.79;100388.31;6296684;20;1819154;-53
2022/05/20 01:33:11;;;;;;;;;11.00;9.00;;;;;8.02;81.10;100377.88;6310765;20;2776492;-54
2022/05/20 01:35:46;;;;;;;;;11.00;9.50;;;;;8.18;81.35;100375.44;6298430;20;1819123;-48
2022/05/20 01:38:14;;;;;;;;;8.00;8.00;;;;;8.14;81.31;100377.38;6314282;20;2729432;-54
2022/05/20 01:40:55;;;;;;;;;9.17;8.50;;;;;7.84;82.01;100372.31;6351628;20;1808684;-51
2022/05/20 01:44:10;;;;;;;;;13.00;10.00;;;;;7.81;82.49;100374.25;6277176;20;2796097;-44
2022/05/20 01:47:14;;;;;;;;;10.00;10.00;;;;;8.12;79.37;100372.09;6281496;20;2788898;-44
2022/05/20 01:50:28;;;;;;;;;16.50;9.50;;;;;8.20;79.18;100378.94;6283889;20;2788191;-44
2022/05/20 01:53:31;;;;;;;;;10.50;9.50;;;;;7.82;80.02;100374.19;6279641;20;2773203;-44
2022/05/20 01:56:36;;;;;;;;;8.50;8.33;;;;;7.52;81.55;100375.38;6323886;20;1803566;-45
2022/05/20 01:59:12;;;;;;;;;10.50;9.00;;;;;7.70;80.52;100372.00;6285965;20;2757635;-50
2022/05/20 02:02:25;;;;;;;;;11.00;10.00;;;;;7.42;81.73;100373.03;6280989;20;2782555;-52
2022/05/20 02:05:25;;;;;;;;;9.00;9.00;;;;;7.42;81.82;100372.16;6285301;20;2760661;-44
2022/05/20 02:08:06;;;;;;;;;8.25;8.25;;;;;7.40;81.46;100364.22;6331478;20;1810770;-46
2022/05/20 02:11:07;;;;;;;;;13.50;9.00;;;;;7.36;82.22;100356.38;6317289;20;2756510;-49
2022/05/20 02:13:51;;;;;;;;;10.14;9.14;;;;;7.21;82.54;100347.13;6357473;20;1821333;-52
2022/05/20 02:16:32;;;;;;;;;11.00;10.50;;;;;6.72;83.88;100341.78;6312151;20;2789826;-46
2022/05/20 02:19:20;;;;;;;;;10.20;8.60;;;;;7.13;83.52;100333.19;6310185;20;2753514;-47
2022/05/20 02:21:57;;;;;;;;;8.00;8.00;;;;;7.26;82.64;100330.00;6350409;20;2471177;-44
2022/05/20 02:24:32;;;;;;;;;13.00;10.00;;;;;7.11;83.04;100338.59;6281930;20;2776374;-46
2022/05/20 02:27:08;;;;;;;;;12.40;10.00;;;;;6.79;84.62;100335.31;6307442;20;2792967;-51
2022/05/20 02:29:47;;;;;;;;;10.00;8.50;;;;;6.84;85.33;100332.44;6301813;20;1814947;-44
2022/05/20 02:32:35;;;;;;;;;11.00;9.80;;;;;7.08;84.58;100335.16;6341045;20;2778417;-44
2022/05/20 02:35:06;;;;;;;;;9.40;9.40;;;;;7.11;84.68;100337.69;6309465;20;2771133;-47
2022/05/20 02:37:37;;;;;;;;;9.00;7.00;;;;;7.52;84.24;100338.81;6315074;20;2747124;-44
2022/05/20 02:40:12;;;;;;;;;10.50;9.50;;;;;7.90;82.65;100336.47;6301978;20;1829521;-45
2022/05/20 02:42:40;;;;;;;;;14.00;11.00;;;;;7.31;84.51;100340.50;6315345;20;2786744;-46
2022/05/20 02:45:10;;;;;;;;;14.50;10.00;;;;;7.26;83.27;100346.00;6282851;20;2786719;-50
2022/05/20 02:47:38;;;;;;;;;8.50;8.50;;;;;6.95;84.09;100350.75;6287397;20;2744044;-55
2022/05/20 02:50:12;;;;;;;;;9.50;9.50;;;;;7.03;84.00;100348.69;6296433;20;1803549;-50
2022/05/20 02:52:41;;;;;;;;;10.50;9.00;;;;;6.79;83.66;100351.31;6334553;20;1806641;-48
2022/05/20 02:55:10;;;;;;;;;9.50;9.50;;;;;6.73;83.34;100345.31;6315239;20;2755489;-46
2022/05/20 02:57:38;;;;;;;;;10.00;8.00;;;;;6.75;83.49;100355.00;6285600;20;2751326;-47
2022/05/20 03:05:43;;;;;;;;;12.00;9.00;;;;;6.98;82.84;100329.31;6282892;20;2778401;-49
2022/05/20 03:08:13;;;;;;;;;15.00;13.00;;;;;7.16;82.50;100339.31;6309138;20;2788809;-53
2022/05/20 03:10:42;;;;;;;;;10.75;9.00;;;;;7.39;82.23;100332.22;6302270;20;1820210;-53
2022/05/20 03:13:10;;;;;;;;;12.50;10.00;;;;;7.54;81.57;100328.09;6314546;20;2792971;-55
2022/05/20 03:15:39;;;;;;;;;10.00;10.00;;;;;7.53;82.14;100326.31;6283979;20;2794035;-55
2022/05/20 03:18:10;;;;;;;;;11.00;9.50;;;;;7.19;84.03;100325.84;6284096;20;2785729;-52
2022/05/20 03:20:41;;;;;;;;;16.00;10.50;;;;;7.52;82.69;100337.97;6284239;20;2795093;-49
2022/05/20 03:23:10;;;;;;;;;11.00;11.00;;;;;7.51;83.39;100328.22;6283020;20;2789983;-54
2022/05/20 03:25:39;;;;;;;;;9.25;7.75;;;;;7.56;83.09;100332.44;6301835;20;1819081;-55
2022/05/20 03:28:13;;;;;;;;;13.20;12.60;;;;;7.36;84.88;100329.66;6335770;20;2804419;-48
2022/05/20 03:30:40;;;;;;;;;15.00;9.50;;;;;7.68;81.81;100337.28;6278648;20;2781540;-52
2022/05/20 03:33:08;;;;;;;;;21.50;10.50;;;;;7.54;80.98;100328.94;6281193;20;2819057;-52
2022/05/20 03:35:36;;;;;;;;;16.00;12.50;;;;;7.57;80.18;100333.31;6281732;20;2795094;-52
2022/05/20 03:38:04;;;;;;;;;12.00;10.50;;;;;7.36;81.57;100340.34;6283280;20;2793095;-45
2022/05/20 03:40:32;;;;;;;;;13.50;10.00;;;;;7.64;79.70;100341.03;6288890;20;2777331;-50
2022/05/20 03:43:00;;;;;;;;;13.50;9.00;;;;;8.00;78.53;100340.47;6278706;20;2776807;-47
2022/05/20 03:45:28;;;;;;;;;11.00;10.00;;;;;7.75;78.63;100337.06;6281499;20;2782573;-53
2022/05/20 03:47:57;;;;;;;;;15.00;11.67;;;;;7.74;80.51;100329.97;6283533;20;2790900;-53
2022/05/20 03:50:25;;;;;;;;;15.50;11.00;;;;;7.94;81.37;100331.84;6315148;20;2796069;-54
2022/05/20 03:52:54;;;;;;;;;14.00;13.00;;;;;8.10;80.59;100336.50;6280379;20;2789856;-52
2022/05/20 03:55:23;;;;;;;;;13.00;10.50;;;;;8.16;81.09;100343.41;6283473;20;2790872;-51
2022/05/20 03:57:51;;;;;;;;;13.00;9.00;;;;;7.95;81.89;100339.78;6281678;20;2759716;-49
2022/05/20 04:00:20;;;;;;;;;11.00;10.00;;;;;8.10;81.65;100339.19;6280326;20;2783622;-51
2022/05/20 04:02:49;;;;;;;;;16.40;13.60;;;;;8.27;79.49;100343.00;6301981;20;2806645;-50
2022/05/20 04:05:18;;;;;;;;;13.33;12.33;;;;;8.02;80.99;100329.72;6282730;20;3513822;-47
2022/05/20 04:07:47;;;;;;;;;17.67;15.00;;;;;7.86;80.73;100333.03;6312833;20;3538945;-45
2022/05/20 04:10:16;;;;;;;;;13.20;11.80;;;;;8.22;80.58;100340.50;6334261;20;2787788;-49
2022/05/20 04:12:46;;;;;;;;;14.20;10.60;;;;;8.96;77.62;100343.59;6307802;20;2791993;-48
2022/05/20 04:15:16;;;;;;;;;13.00;12.40;;;;;8.98;76.34;100343.53;6306317;20;2799201;-49
2022/05/20 04:17:47;;;;;;;;;17.17;16.33;;;;;8.52;79.15;100338.34;6305920;20;2830731;-52
2022/05/20 04:20:15;;;;;;;;;14.50;14.50;;;;;8.63;80.04;100334.34;6309611;20;2807960;-50
2022/05/20 04:22:44;;;;;;;;;18.00;13.67;;;;;8.96;78.70;100330.19;6282632;20;3560637;-46
2022/05/20 04:25:13;;;;;;;;;18.00;17.00;;;;;9.20;78.47;100333.56;6311858;20;3557652;-45
2022/05/20 04:27:42;;;;;;;;;17.33;16.33;;;;;9.51;78.34;100332.19;6311340;20;3548170;-50
2022/05/20 04:30:11;;;;;;;;;24.00;24.00;;;;;9.43;78.71;100329.84;6274651;20;2500285;-48
2022/05/20 04:32:40;;;;;;;;;30.50;27.00;;;;;9.74;79.34;100338.25;6280683;20;2844086;-51
2022/05/20 04:35:08;;;;;;;;;32.00;24.50;;;;;9.80;78.37;100336.16;6280503;20;2500357;-53
2022/05/20 04:37:38;;;;;;;;;52.33;36.67;;;;;9.79;80.13;100330.84;6282461;20;2873244;-52
2022/05/20 04:40:08;;;;;;;;;51.33;39.00;;;;;10.03;80.29;100335.03;6311656;20;3612763;-51
2022/05/20 04:48:13;;;;;;;;;22.00;14.67;;;;;10.48;75.60;100333.72;6281355;20;3558555;-53
2022/05/20 04:50:41;;;;;;;;;18.33;16.33;;;;;10.55;77.51;100331.59;6277876;20;3557552;-54
2022/05/20 04:54:49;;;;;;;;;19.33;14.33;;;;;10.55;77.46;100331.59;6312645;20;3528350;-53
2022/05/20 04:55:58;;;;;;;;;23.33;15.00;;;;;10.97;75.16;100341.03;6276956;20;3561838;-51
2022/05/20 04:58:27;;;;;;;;;21.33;15.67;;;;;11.23;74.89;100349.56;6312719;20;3549364;-54
2022/05/20 05:00:56;;;;;;;;;19.00;16.00;;;;;11.83;72.73;100356.06;6275640;20;3536797;-51
2022/05/20 05:03:25;;;;;;;;;19.33;16.00;;;;;12.28;71.10;100351.75;6308330;20;3552418;-52
2022/05/20 05:05:53;;;;;;;;;20.00;17.50;;;;;12.41;69.05;100348.34;6306794;20;2496101;-54
2022/05/20 05:08:25;;;;;;;;;24.33;18.33;;;;;12.24;70.25;100344.81;6281323;20;3576460;-54
2022/05/20 05:10:54;;;;;;;;;17.00;17.00;;;;;12.71;69.31;100351.03;6277696;20;3567018;-55
2022/05/20 05:13:22;;;;;;;;;16.00;14.67;;;;;13.23;66.80;100349.72;6278722;20;3537723;-51
2022/05/20 05:15:51;;;;;;;;;16.67;13.33;;;;;13.46;67.12;100356.41;6276719;20;2809824;-51
2022/05/20 05:18:23;;;;;;;;;15.00;14.00;;;;;13.69;65.46;100358.50;6309127;20;2808651;-53
2022/05/20 05:20:52;;;;;;;;;17.33;15.33;;;;;14.25;62.49;100367.44;6278833;20;3547111;-51
2022/05/20 05:23:21;;;;;;;;;14.50;14.00;;;;;13.81;68.28;100360.41;6283481;20;2803461;-50
2022/05/20 05:25:51;;;;;;;;;16.33;13.00;;;;;14.32;60.94;100364.34;6286016;20;3530518;-54
2022/05/20 05:28:21;;;;;;;;;14.33;13.00;;;;;13.63;66.97;100353.50;6313446;20;3516949;-47
2022/05/20 05:30:51;;;;;;;;;13.50;13.50;;;;;14.16;65.24;100364.47;6319050;20;2809685;-49
2022/05/20 05:33:21;;;;;;;;;13.00;12.00;;;;;14.04;66.65;100363.47;6289104;20;2789911;-49
2022/05/20 05:35:50;;;;;;;;;19.33;16.00;;;;;14.12;65.22;100366.53;6289532;20;2827393;-51
2022/05/20 05:38:24;;;;;;;;;15.00;13.50;;;;;14.63;60.22;100364.03;6312778;20;2491916;-49
2022/05/20 05:40:52;;;;;;;;;17.00;12.00;;;;;14.47;64.07;100372.28;6287320;20;2799227;-48
2022/05/20 05:43:20;;;;;;;;;12.00;12.00;;;;;14.50;64.05;100371.22;6291826;20;2784655;-51
2022/05/20 05:45:48;;;;;;;;;14.00;14.00;;;;;14.65;64.59;100374.78;6298902;20;2673336;-48
2022/05/20 05:48:17;;;;;;;;;12.80;12.80;;;;;15.11;62.98;100372.50;6311872;20;2806535;-49
2022/05/20 05:50:47;;;;;;;;;15.67;13.00;;;;;15.36;62.72;100377.03;6285452;20;3525290;-51
2022/05/20 05:53:22;;;;;;;;;16.67;13.67;;;;;15.81;58.75;100368.47;6318902;20;3540958;-50
2022/05/20 05:56:00;;;;;;;;;23.00;14.50;;;;;15.94;60.73;100372.03;6318753;20;2826305;-50
2022/05/20 05:58:30;;;;;;;;;17.00;14.67;;;;;16.67;57.70;100376.53;6290414;20;3534658;-51
2022/05/20 06:00:59;;;;;;;;;21.00;18.67;;;;;16.99;57.68;100370.50;6319736;20;3583580;-50
2022/05/20 06:03:28;;;;;;;;;21.50;19.00;;;;;17.45;57.91;100376.88;6286070;20;2496145;-53
2022/05/20 06:05:57;;;;;;;;;14.00;9.67;;;;;18.06;52.66;100373.81;6285804;20;2780507;-54
2022/05/20 06:08:26;;;;;;;;;10.60;8.60;;;;;18.28;49.31;100370.22;6342356;20;2772367;-55
2022/05/20 06:11:01;;;;;;;;;9.60;9.60;;;;;18.88;50.13;100368.81;6311044;20;2769185;-55
2022/05/20 06:13:30;;;;;;;;;6.00;6.00;;;;;19.10;48.15;100377.84;6289100;20;2740967;-57
2022/05/20 06:15:59;;;;;;;;;11.00;8.00;;;;;19.04;44.55;100379.25;6282781;20;2769061;-52
2022/05/20 06:18:28;;;;;;;;;11.33;10.67;;;;;18.94;44.74;100378.31;6316952;20;2789889;-55
2022/05/20 06:20:57;;;;;;;;;9.00;8.00;;;;;19.46;42.50;100369.19;6315934;20;2749261;-55
2022/05/20 06:23:25;;;;;;;;;7.00;7.00;;;;;19.80;42.56;100368.97;6291178;20;2746103;-51
2022/05/20 06:25:54;;;;;;;;;7.00;7.00;;;;;20.23;42.85;100375.97;6290474;20;2742033;-52
2022/05/20 06:28:46;;;;;;;;;4.86;4.86;;;;;20.15;41.27;100363.03;6333378;20;3449219;-54
2022/05/20 06:31:14;;;;;;;;;8.00;8.00;;;;;20.32;40.51;100364.22;6318736;20;2740901;-54
2022/05/20 06:33:42;;;;;;;;;10.00;9.00;;;;;20.63;41.81;100364.16;6295591;20;2772301;-55
2022/05/20 06:41:45;;;;;;;;;8.00;7.00;;;;;21.23;39.20;100356.66;6318710;20;2736719;-55
2022/05/20 06:44:15;;;;;;;;;6.00;6.00;;;;;21.21;38.72;100361.38;6290538;20;2729415;-57
2022/05/20 06:46:46;;;;;;;;;5.00;5.00;;;;;21.64;38.00;100362.78;6344511;20;2736721;-54
2022/05/20 06:49:16;;;;;;;;;5.80;4.60;;;;;22.12;36.83;100366.28;6342131;20;2727369;-58
2022/05/20 06:51:46;;;;;;;;;5.20;5.20;;;;;21.99;36.90;100363.91;6344574;20;2725246;-57
2022/05/20 06:54:16;;;;;;;;;5.60;5.60;;;;;22.68;35.55;100361.63;6343908;20;2748162;-52
2022/05/20 06:56:45;;;;;;;;;5.00;5.00;;;;;22.68;36.72;100364.38;6289740;20;2741911;-59
2022/05/20 06:59:14;;;;;;;;;4.00;4.00;;;;;22.85;35.45;100371.69;6321658;20;2735710;-54
2022/05/20 07:01:43;;;;;;;;;7.00;6.00;;;;;23.15;34.89;100372.34;6346258;20;2743084;-57
2022/05/20 07:04:32;;;;;;;;;4.67;4.67;;;;;23.00;34.78;100366.56;6289039;20;2742045;-56
2022/05/20 07:07:05;;;;;;;;;6.80;6.00;;;;;23.70;34.45;100361.06;6342257;20;2748177;-55
2022/05/20 07:09:34;;;;;;;;;5.67;5.67;;;;;23.91;33.72;100362.56;6287683;20;2744009;-55
2022/05/20 07:12:05;;;;;;;;;4.40;3.80;;;;;24.72;32.94;100360.13;6343677;20;2747163;-57
2022/05/20 07:14:34;;;;;;;;;7.20;7.00;;;;;24.60;33.70;100360.63;6343329;20;2745025;-54
2022/05/20 07:17:04;;;;;;;;;7.00;7.00;;;;;24.70;33.20;100358.56;6311776;20;2748193;-55
2022/05/20 07:19:33;;;;;;;;;3.80;3.80;;;;;25.32;32.02;100360.81;6312012;20;2756528;-55
2022/05/20 07:22:03;;;;;;;;;5.40;5.40;;;;;25.12;32.23;100363.03;6308449;20;2748176;-54
2022/05/20 07:24:32;;;;;;;;;6.00;5.00;;;;;25.68;31.20;100368.69;6287656;20;2747144;-57
2022/05/20 07:27:00;;;;;;;;;7.67;5.33;;;;;24.90;30.49;100370.06;6319042;20;2747168;-55
2022/05/20 07:29:28;;;;;;;;;7.00;5.67;;;;;25.99;30.65;100371.53;6319452;20;2738836;-58
2022/05/20 07:32:01;;;;;;;;;5.60;4.40;;;;;26.40;30.10;100374.94;6344140;20;2750246;-57
2022/05/20 07:34:31;;;;;;;;;5.00;5.00;;;;;26.64;31.09;100373.97;6311838;20;2748212;-55
2022/05/20 07:37:00;;;;;;;;;6.00;6.00;;;;;27.12;29.49;100379.28;6288004;20;2748391;-59
2022/05/20 07:39:29;;;;;;;;;4.00;4.00;;;;;26.44;30.09;100375.44;6342760;20;2743059;-60
2022/05/20 07:41:58;;;;;;;;;6.33;6.33;;;;;24.73;32.06;100369.22;6327358;20;2743999;-59
2022/05/20 07:44:27;;;;;;;;;6.20;6.20;;;;;23.98;32.55;100367.22;6343348;20;2735759;-59
2022/05/20 07:46:56;;;;;;;;;12.67;10.00;;;;;23.80;30.97;100361.84;6284325;20;3515843;-59
2022/05/20 07:49:25;;;;;;;;;8.00;8.00;;;;;23.79;31.24;100359.25;6285902;20;2740900;-59
2022/05/20 07:51:57;;;;;;;;;15.33;14.00;;;;;23.97;32.22;100367.41;6316407;20;3543029;-59
2022/05/20 07:54:31;;;;;;;;;27.67;23.67;;;;;24.66;30.35;100376.41;6282923;20;3589821;-59
2022/05/20 07:57:12;;;;;;;;;6.17;6.17;;;;;24.83;29.82;100366.28;6366973;20;1794167;-58
2022/05/20 07:59:52;;;;;;;;;6.00;6.00;;;;;25.91;29.42;100379.78;6315167;20;2741038;-58
2022/05/20 08:02:27;;;;;;;;;15.00;13.33;;;;;25.53;28.96;100376.78;6313552;20;2799478;-58
2022/05/20 08:04:58;;;;;;;;;6.50;5.00;;;;;25.72;28.65;100381.88;6322604;20;2694004;-58
2022/05/20 08:07:42;;;;;;;;;6.67;6.67;;;;;25.56;28.30;100379.16;6316170;20;2734659;-55
2022/05/20 08:10:22;;;;;;;;;6.80;6.00;;;;;26.12;28.70;100390.22;6339433;20;2746244;-59
2022/05/20 08:12:51;;;;;;;;;5.67;5.67;;;;;25.91;29.67;100386.19;6284330;20;2740932;-59
2022/05/20 08:15:21;;;;;;;;;7.40;5.00;;;;;26.23;28.47;100382.44;6342335;20;2748160;-59
2022/05/20 08:17:50;;;;;;;;;7.00;5.33;;;;;25.76;30.20;100372.25;6320073;20;2739870;-59
2022/05/20 08:20:28;;;;;;;;;7.60;4.60;;;;;25.92;29.33;100371.38;6340503;20;2743109;-60
2022/05/20 08:22:58;;;;;;;;;5.00;3.80;;;;;26.39;29.19;100364.97;6311732;20;2743992;-60
2022/05/20 08:25:28;;;;;;;;;5.60;5.60;;;;;25.95;29.08;100362.75;6309294;20;2739828;-60
2022/05/20 08:27:57;;;;;;;;;7.00;6.00;;;;;26.22;28.81;100377.09;6285813;20;2748169;-58
2022/05/20 08:30:54;;;;;;;;;6.00;4.00;;;;;26.27;28.78;100375.50;6338863;20;2747784;-59
2022/05/20 08:33:22;;;;;;;;;6.00;6.00;;;;;25.53;28.86;100371.28;6288665;20;2737750;-58
2022/05/20 08:35:51;;;;;;;;;7.67;7.00;;;;;26.89;28.00;100369.16;6320122;20;2744080;-59
2022/05/20 08:38:21;;;;;;;;;5.00;5.00;;;;;26.30;28.22;100365.19;6319791;20;2735691;-60
2022/05/20 08:40:50;;;;;;;;;6.00;6.00;;;;;26.26;28.84;100361.94;6340996;20;2741979;-59
2022/05/20 08:43:32;;;;;;;;;7.67;6.00;;;;;26.78;27.42;100365.94;6284766;20;2748315;-59
2022/05/20 08:46:05;;;;;;;;;6.20;6.00;;;;;27.13;28.87;100350.69;6338570;20;2736736;-60
2022/05/20 08:48:34;;;;;;;;;7.00;5.00;;;;;27.48;27.36;100345.56;6318090;20;2740245;-54
2022/05/20 08:51:04;;;;;;;;;7.60;6.60;;;;;26.54;29.03;100356.84;6337010;20;2740915;-52
2022/05/20 08:53:41;;;;;;;;;7.00;5.20;;;;;27.15;28.14;100338.44;6308956;20;2738809;-51
2022/05/20 08:56:24;;;;;;;;;5.00;5.00;;;;;27.40;28.16;100342.88;6307984;20;2738811;-52
2022/05/20 08:59:12;;;;;;;;;7.40;6.00;;;;;26.39;29.14;100333.81;6311784;20;2738786;-57
2022/05/20 09:01:49;;;;;;;;;5.40;4.40;;;;;26.84;28.03;100345.94;6344278;20;2746202;-54
2022/05/20 09:04:24;;;;;;;;;5.67;5.67;;;;;26.88;29.03;100334.38;6292165;20;2729402;-54
2022/05/20 09:07:10;;;;;;;;;10.00;7.00;;;;;27.28;28.07;100324.06;6318634;20;2769025;-55
2022/05/20 09:09:59;;;;;;;;;8.00;5.20;;;;;27.41;28.34;100317.00;6346304;20;2746113;-53
2022/05/20 09:12:38;;;;;;;;;5.00;5.00;;;;;27.39;27.63;100330.16;6315401;20;2747171;-57
2022/05/20 09:18:18;;;;;;;;;7.00;6.00;;;;;27.17;28.79;100310.69;6290988;20;2748280;-57
2022/05/20 09:20:52;;;;;;;;;6.20;6.20;;;;;26.92;28.13;100308.16;6342009;20;2746212;-54
2022/05/20 09:23:24;;;;;;;;;7.00;6.00;;;;;27.73;28.64;100311.13;6290577;20;2738836;-53
2022/05/20 09:26:08;;;;;;;;;6.33;5.33;;;;;27.61;29.53;100301.63;6322939;20;2746205;-53
2022/05/20 09:29:08;;;;;;;;;8.60;6.20;;;;;27.48;28.32;100302.28;6343999;20;2748213;-55
2022/05/20 09:32:07;;;;;;;;;5.00;5.00;;;;;27.47;28.73;100294.22;6289353;20;2731500;-59
2022/05/20 09:34:41;;;;;;;;;5.40;5.00;;;;;27.59;28.66;100292.66;6343389;20;2731591;-55
2022/05/20 09:37:14;;;;;;;;;5.80;5.00;;;;;27.33;28.28;100287.59;6315062;20;2738837;-55
2022/05/20 09:39:50;;;;;;;;;7.00;6.20;;;;;28.37;27.96;100291.13;6314182;20;2740883;-55
2022/05/20 09:42:29;;;;;;;;;6.00;6.00;;;;;28.03;28.25;100294.56;6293262;20;2737747;-55
2022/05/20 09:45:19;;;;;;;;;7.60;7.60;;;;;27.91;29.07;100296.97;6345541;20;2737921;-58
2022/05/20 09:47:56;;;;;;;;;6.00;6.00;;;;;27.48;29.06;100280.19;6295638;20;2739900;-53
2022/05/20 09:50:34;;;;;;;;;7.00;7.00;;;;;27.51;29.48;100268.78;6322097;20;2746074;-55
2022/05/20 09:53:35;;;;;;;;;4.67;4.67;;;;;28.41;29.10;100270.38;6323097;20;2746065;-56
2022/05/20 09:56:30;;;;;;;;;8.00;8.00;;;;;28.69;28.48;100260.47;6320745;20;2748152;-56
2022/05/20 09:59:57;;;;;;;;;6.67;6.00;;;;;28.45;29.36;100246.00;6321952;20;2739934;-48
2022/05/20 10:02:42;;;;;;;;;10.00;7.00;;;;;28.38;29.39;100247.78;6318736;20;2753382;-57
2022/05/20 10:05:50;;;;;;;;;7.67;7.00;;;;;28.19;28.91;100244.63;6320061;20;2748256;-55
2022/05/20 10:08:39;;;;;;;;;8.00;6.33;;;;;28.66;29.43;100243.22;6321071;20;2732579;-54
2022/05/20 10:11:20;;;;;;;;;7.33;7.33;;;;;28.13;29.47;100239.91;6319755;20;2734642;-54
2022/05/20 10:14:34;;;;;;;;;6.33;6.00;;;;;28.31;29.81;100233.94;6319780;20;2742990;-56
2022/05/20 10:17:11;;;;;;;;;6.67;5.00;;;;;28.31;29.41;100222.03;6321291;20;2744062;-58
2022/05/20 10:19:58;;;;;;;;;7.00;7.00;;;;;28.30;29.57;100231.34;6320754;20;2729633;-55
2022/05/20 10:23:35;;;;;;;;;6.67;6.00;;;;;28.30;29.98;100223.06;6322147;20;2747124;-57
2022/05/20 10:26:28;;;;;;;;;6.00;6.00;;;;;28.76;30.01;100228.22;6317951;20;2744005;-55
2022/05/20 10:32:35;;;;;;;;;7.33;7.33;;;;;28.30;29.79;100223.06;6319600;20;2730532;-55
2022/05/20 10:35:14;;;;;;;;;7.00;7.00;;;;;29.09;28.90;100226.56;6320367;20;2733601;-56
2022/05/20 10:38:25;;;;;;;;;9.33;7.67;;;;;28.95;28.90;100221.97;6321180;20;2736787;-56
2022/05/20 10:41:19;;;;;;;;;6.00;6.00;;;;;28.32;29.57;100218.22;6319844;20;2739845;-54
2022/05/20 10:50:31;;;;;;;;;9.00;6.00;;;;;29.22;28.50;100227.72;6321853;20;2740925;-56
2022/05/20 10:54:08;;;;;;;;;6.33;6.33;;;;;28.51;29.46;100217.56;6320301;20;2730514;-57
2022/05/20 10:56:48;;;;;;;;;10.67;8.67;;;;;29.29;28.75;100223.94;6319753;20;2764849;-56
2022/05/20 11:00:00;;;;;;;;;8.00;8.00;;;;;29.59;29.15;100231.13;6320454;20;2748184;-56
2022/05/20 11:02:50;;;;;;;;;9.00;6.00;;;;;28.94;29.34;100231.34;6318667;20;2740893;-56
2022/05/20 11:05:46;;;;;;;;;9.33;9.33;;;;;30.24;28.85;100226.94;6324903;20;2775274;-57
2022/05/20 11:08:38;;;;;;;;;11.33;8.00;;;;;29.58;28.69;100215.59;6313580;20;2759794;-56
2022/05/20 11:11:34;;;;;;;;;8.00;7.67;;;;;29.61;28.91;100202.19;6318611;20;2748308;-58
2022/05/20 11:15:03;;;;;;;;;7.67;7.67;;;;;29.68;29.07;100205.88;6316663;20;2750240;-53
2022/05/20 11:17:49;;;;;;;;;9.00;6.67;;;;;29.39;28.64;100197.84;6318647;20;2748195;-54
2022/05/20 11:21:32;;;;;;;;;6.33;6.33;;;;;29.46;28.38;100184.88;6313811;20;2741991;-51
2022/05/20 11:24:35;;;;;;;;;8.33;8.33;;;;;29.86;29.00;100188.69;6321536;20;2741974;-57
2022/05/20 11:27:45;;;;;;;;;7.67;7.67;;;;;30.43;28.98;100185.63;6327349;20;2754528;-54
2022/05/20 11:30:23;;;;;;;;;8.67;7.00;;;;;30.13;28.98;100169.38;6319415;20;2750296;-56
2022/05/20 11:33:33;;;;;;;;;10.33;7.33;;;;;30.11;28.56;100171.50;6317354;20;2750367;-52
2022/05/20 11:39:54;;;;;;;;;9.33;7.00;;;;;29.86;29.25;100168.44;6315681;20;2754483;-56
2022/05/20 11:42:56;;;;;;;;;10.67;8.67;;;;;29.61;30.38;100168.13;6323556;20;2762798;-56
2022/05/20 11:46:00;;;;;;;;;5.00;5.00;;;;;29.35;30.40;100166.09;6320258;20;2741922;-59
2022/05/20 11:48:38;;;;;;;;;11.67;8.00;;;;;30.30;29.50;100165.16;6319176;20;2772189;-56
2022/05/20 11:52:00;;;;;;;;;9.00;8.00;;;;;31.24;28.13;100161.25;6317348;20;2750307;-52
2022/05/20 11:54:44;;;;;;;;;8.00;8.00;;;;;30.28;28.41;100155.34;6317809;20;2746095;-53
2022/05/20 11:57:25;;;;;;;;;8.00;8.00;;;;;28.92;29.98;100149.66;6326678;20;2697127;-55
2022/05/20 12:00:10;;;;;;;;;6.00;6.00;;;;;28.87;31.43;100150.25;6316096;20;2739888;-53
2022/05/20 12:03:05;;;;;;;;;12.00;9.00;;;;;28.80;30.73;100141.06;6316754;20;2764834;-52
2022/05/20 12:05:41;;;;;;;;;7.67;7.67;;;;;29.64;30.35;100145.56;6317483;20;2744002;-55
2022/05/20 12:08:38;;;;;;;;;7.00;7.00;;;;;28.74;30.69;100142.72;6317324;20;2737744;-53
2022/05/20 12:11:41;;;;;;;;;10.33;10.33;;;;;30.25;29.40;100142.75;6321055;20;2778410;-52
2022/05/20 12:14:16;;;;;;;;;10.00;7.67;;;;;30.18;28.46;100139.13;6313617;20;3476310;-52
2022/05/20 12:17:05;;;;;;;;;9.00;7.67;;;;;30.98;27.86;100130.81;6316043;20;2751347;-52
2022/05/20 12:26:00;;;;;;;;;8.33;8.33;;;;;29.91;28.84;100122.47;6318039;20;2749633;-53
2022/05/20 12:28:37;;;;;;;;;23.00;21.00;;;;;29.95;29.61;100123.75;6313078;20;3577331;-50
2022/05/20 12:31:40;;;;;;;;;12.00;11.67;;;;;30.66;28.94;100124.22;6316284;20;3505574;-50
2022/05/20 12:34:38;;;;;;;;;9.00;7.67;;;;;30.54;28.70;100126.78;6323923;20;2761706;-53